PWSweather.com
Personal Weather Stations
Station Observations
THENIOUX
Tomatologue, TheniouxFR 18100

TomatologueTheniouxFR 18100

Lat: 47.2574218, Lon: 1.928950900000018

Elevation: 406

Station Type: davis vue

http://www.meteo.gedfr.co/index.php

High Low Average
Temperature 75.9°F24.4°C 52.9°F11.6°C 63.6°F17.6°C
Dew Point 61.7°F16.5°C 52.0°F11.1°C 57.0°F13.9°C
Winds 4.0 mph 6.4 kmh Calm Calm 1.0 mph SE1.6 kmh SE
Wind Gusts 11.0 mph17.7 kmh -- 2.0 mph3.2 kmh
Humidity 98% 53% 81%
Pressure 29.67 in1004.7 mb 29.55 in1000.7 mb -
Precipitation 0.12 in3.0 mm - -
Hour Temp Dew Point Humidity Winds Wind Gusts Pressure Precip Precip Rate Daily Precip Total
12:01 AM 58.1°F14.5°C 57.0°F13.9°C 96% Calm Calm -- 29.56 in1001.0 mb 0.00 in0.0 mm 0.00 in0.0 mm 0.00 in0.0 mm
12:06 AM 57.9°F14.4°C 56.8°F13.8°C 96% Calm Calm -- 29.56 in1001.0 mb 0.00 in0.0 mm 0.00 in0.0 mm 0.00 in0.0 mm
12:11 AM 57.9°F14.4°C 56.8°F13.8°C 96% Calm Calm -- 29.56 in1001.0 mb 0.00 in0.0 mm 0.00 in0.0 mm 0.00 in0.0 mm
12:16 AM 57.9°F14.4°C 56.8°F13.8°C 96% Calm Calm -- 29.56 in1001.0 mb 0.00 in0.0 mm 0.00 in0.0 mm 0.00 in0.0 mm
12:21 AM 57.7°F14.3°C 56.7°F13.7°C 96% Calm Calm -- 29.56 in1001.0 mb 0.00 in0.0 mm 0.00 in0.0 mm 0.00 in0.0 mm
12:26 AM 57.7°F14.3°C 56.7°F13.7°C 96% Calm Calm -- 29.56 in1001.0 mb 0.00 in0.0 mm 0.00 in0.0 mm 0.00 in0.0 mm
12:31 AM 57.6°F14.2°C 56.5°F13.6°C 96% Calm Calm -- 29.56 in1001.0 mb 0.00 in0.0 mm 0.00 in0.0 mm 0.00 in0.0 mm
12:36 AM 57.6°F14.2°C 56.5°F13.6°C 96% Calm Calm -- 29.56 in1001.0 mb 0.00 in0.0 mm 0.00 in0.0 mm 0.00 in0.0 mm
12:42 AM 57.4°F14.1°C 56.3°F13.5°C 96% Calm Calm -- 29.56 in1001.0 mb 0.00 in0.0 mm 0.00 in0.0 mm 0.00 in0.0 mm
12:47 AM 57.4°F14.1°C 56.3°F13.5°C 96% Calm Calm -- 29.56 in1001.0 mb 0.00 in0.0 mm 0.00 in0.0 mm 0.00 in0.0 mm
12:52 AM 57.2°F14.0°C 56.1°F13.4°C 96% Calm Calm -- 29.56 in1001.0 mb 0.00 in0.0 mm 0.00 in0.0 mm 0.00 in0.0 mm
12:57 AM 57.0°F13.9°C 55.9°F13.3°C 96% Calm Calm -- 29.56 in1001.0 mb 0.00 in0.0 mm 0.00 in0.0 mm 0.00 in0.0 mm
01:02 AM 57.0°F13.9°C 55.9°F13.3°C 96% Calm Calm -- 29.56 in1001.0 mb 0.00 in0.0 mm 0.00 in0.0 mm 0.00 in0.0 mm
01:07 AM 57.0°F13.9°C 55.9°F13.3°C 96% Calm Calm -- 29.56 in1001.0 mb 0.00 in0.0 mm 0.00 in0.0 mm 0.00 in0.0 mm
01:12 AM 56.8°F13.8°C 55.8°F13.2°C 96% Calm Calm -- 29.56 in1001.0 mb 0.00 in0.0 mm 0.00 in0.0 mm 0.00 in0.0 mm
01:17 AM 56.8°F13.8°C 55.8°F13.2°C 96% Calm Calm -- 29.56 in1001.0 mb 0.00 in0.0 mm 0.00 in0.0 mm 0.00 in0.0 mm
01:22 AM 56.8°F13.8°C 55.8°F13.2°C 96% Calm Calm -- 29.56 in1001.0 mb 0.00 in0.0 mm 0.00 in0.0 mm 0.00 in0.0 mm
01:27 AM 56.7°F13.7°C 55.6°F13.1°C 96% Calm Calm -- 29.56 in1001.0 mb 0.00 in0.0 mm 0.00 in0.0 mm 0.00 in0.0 mm
01:32 AM 56.7°F13.7°C 55.6°F13.1°C 96% Calm Calm -- 29.56 in1001.0 mb 0.00 in0.0 mm 0.00 in0.0 mm 0.00 in0.0 mm
01:37 AM 56.5°F13.6°C 55.4°F13.0°C 96% Calm Calm -- 29.56 in1001.0 mb 0.00 in0.0 mm 0.00 in0.0 mm 0.00 in0.0 mm
01:42 AM 56.5°F13.6°C 55.4°F13.0°C 96% Calm Calm -- 29.56 in1001.0 mb 0.00 in0.0 mm 0.00 in0.0 mm 0.00 in0.0 mm
01:47 AM 56.1°F13.4°C 55.0°F12.8°C 96% Calm Calm -- 29.56 in1001.0 mb 0.00 in0.0 mm 0.00 in0.0 mm 0.00 in0.0 mm
01:52 AM 56.1°F13.4°C 55.0°F12.8°C 96% Calm Calm -- 29.56 in1001.0 mb 0.00 in0.0 mm 0.00 in0.0 mm 0.00 in0.0 mm
01:57 AM 55.9°F13.3°C 54.9°F12.7°C 96% Calm Calm -- 29.56 in1001.0 mb 0.00 in0.0 mm 0.00 in0.0 mm 0.00 in0.0 mm
02:02 AM 55.8°F13.2°C 54.7°F12.6°C 96% Calm Calm -- 29.56 in1001.0 mb 0.00 in0.0 mm 0.00 in0.0 mm 0.00 in0.0 mm
02:07 AM 55.6°F13.1°C 54.5°F12.5°C 96% Calm Calm -- 29.56 in1001.0 mb 0.00 in0.0 mm 0.00 in0.0 mm 0.00 in0.0 mm
02:12 AM 55.6°F13.1°C 54.5°F12.5°C 96% Calm Calm -- 29.56 in1001.0 mb 0.00 in0.0 mm 0.00 in0.0 mm 0.00 in0.0 mm
02:17 AM 55.4°F13.0°C 54.3°F12.4°C 96% Calm Calm -- 29.56 in1001.0 mb 0.00 in0.0 mm 0.00 in0.0 mm 0.00 in0.0 mm
02:22 AM 55.2°F12.9°C 54.1°F12.3°C 96% Calm Calm -- 29.56 in1001.0 mb 0.00 in0.0 mm 0.00 in0.0 mm 0.00 in0.0 mm
02:27 AM 55.0°F12.8°C 54.0°F12.2°C 96% Calm Calm -- 29.56 in1001.0 mb 0.00 in0.0 mm 0.00 in0.0 mm 0.00 in0.0 mm
02:32 AM 55.0°F12.8°C 54.0°F12.2°C 96% Calm Calm -- 29.56 in1001.0 mb 0.00 in0.0 mm 0.00 in0.0 mm 0.00 in0.0 mm
02:37 AM 54.9°F12.7°C 53.8°F12.1°C 96% Calm Calm -- 29.56 in1001.0 mb 0.00 in0.0 mm 0.00 in0.0 mm 0.00 in0.0 mm
02:42 AM 54.9°F12.7°C 53.8°F12.1°C 96% Calm Calm -- 29.56 in1001.0 mb 0.00 in0.0 mm 0.00 in0.0 mm 0.00 in0.0 mm
02:47 AM 54.9°F12.7°C 53.8°F12.1°C 96% Calm Calm -- 29.56 in1001.0 mb 0.00 in0.0 mm 0.00 in0.0 mm 0.00 in0.0 mm
02:52 AM 54.9°F12.7°C 53.8°F12.1°C 96% Calm Calm -- 29.56 in1001.0 mb 0.00 in0.0 mm 0.00 in0.0 mm 0.00 in0.0 mm
02:57 AM 54.7°F12.6°C 53.6°F12.0°C 96% Calm Calm -- 29.56 in1001.0 mb 0.00 in0.0 mm 0.00 in0.0 mm 0.00 in0.0 mm
03:02 AM 54.7°F12.6°C 53.6°F12.0°C 96% Calm Calm -- 29.56 in1001.0 mb 0.00 in0.0 mm 0.00 in0.0 mm 0.00 in0.0 mm
03:07 AM 54.7°F12.6°C 53.6°F12.0°C 96% Calm Calm -- 29.56 in1001.0 mb 0.00 in0.0 mm 0.00 in0.0 mm 0.00 in0.0 mm
03:12 AM 54.7°F12.6°C 53.8°F12.1°C 97% Calm Calm -- 29.56 in1001.0 mb 0.00 in0.0 mm 0.00 in0.0 mm 0.00 in0.0 mm
03:17 AM 54.7°F12.6°C 53.8°F12.1°C 97% Calm Calm -- 29.56 in1001.0 mb 0.00 in0.0 mm 0.00 in0.0 mm 0.00 in0.0 mm
03:22 AM 54.3°F12.4°C 53.2°F11.8°C 96% Calm Calm -- 29.56 in1001.0 mb 0.00 in0.0 mm 0.00 in0.0 mm 0.00 in0.0 mm
03:27 AM 54.3°F12.4°C 53.4°F11.9°C 97% Calm Calm -- 29.56 in1001.0 mb 0.00 in0.0 mm 0.00 in0.0 mm 0.00 in0.0 mm
03:32 AM 54.3°F12.4°C 53.2°F11.8°C 96% Calm Calm -- 29.56 in1001.0 mb 0.00 in0.0 mm 0.00 in0.0 mm 0.00 in0.0 mm
03:37 AM 54.3°F12.4°C 53.2°F11.8°C 96% Calm Calm -- 29.56 in1001.0 mb 0.00 in0.0 mm 0.00 in0.0 mm 0.00 in0.0 mm
03:42 AM 54.1°F12.3°C 53.1°F11.7°C 96% Calm Calm -- 29.55 in1000.7 mb 0.00 in0.0 mm 0.00 in0.0 mm 0.00 in0.0 mm
03:47 AM 54.1°F12.3°C 53.2°F11.8°C 97% Calm Calm -- 29.55 in1000.7 mb 0.00 in0.0 mm 0.00 in0.0 mm 0.00 in0.0 mm
03:52 AM 54.1°F12.3°C 53.2°F11.8°C 97% Calm Calm -- 29.55 in1000.7 mb 0.00 in0.0 mm 0.00 in0.0 mm 0.00 in0.0 mm
03:57 AM 54.1°F12.3°C 53.2°F11.8°C 97% Calm Calm -- 29.56 in1001.0 mb 0.00 in0.0 mm 0.00 in0.0 mm 0.00 in0.0 mm
04:02 AM 54.1°F12.3°C 53.2°F11.8°C 97% Calm Calm -- 29.56 in1001.0 mb 0.00 in0.0 mm 0.00 in0.0 mm 0.00 in0.0 mm
04:07 AM 54.0°F12.2°C 53.1°F11.7°C 97% Calm Calm -- 29.55 in1000.7 mb 0.00 in0.0 mm 0.00 in0.0 mm 0.00 in0.0 mm
04:12 AM 54.0°F12.2°C 53.1°F11.7°C 97% Calm Calm -- 29.55 in1000.7 mb 0.00 in0.0 mm 0.00 in0.0 mm 0.00 in0.0 mm
04:17 AM 53.8°F12.1°C 52.9°F11.6°C 97% Calm Calm -- 29.56 in1001.0 mb 0.00 in0.0 mm 0.00 in0.0 mm 0.00 in0.0 mm
04:22 AM 53.8°F12.1°C 52.7°F11.5°C 96% Calm Calm -- 29.56 in1001.0 mb 0.00 in0.0 mm 0.00 in0.0 mm 0.00 in0.0 mm
04:27 AM 53.4°F11.9°C 52.3°F11.3°C 96% Calm Calm -- 29.56 in1001.0 mb 0.00 in0.0 mm 0.00 in0.0 mm 0.00 in0.0 mm
04:32 AM 53.2°F11.8°C 52.2°F11.2°C 96% Calm Calm -- 29.56 in1001.0 mb 0.00 in0.0 mm 0.00 in0.0 mm 0.00 in0.0 mm
04:37 AM 53.1°F11.7°C 52.0°F11.1°C 96% Calm Calm -- 29.56 in1001.0 mb 0.00 in0.0 mm 0.00 in0.0 mm 0.00 in0.0 mm
04:42 AM 53.1°F11.7°C 52.2°F11.2°C 97% Calm Calm -- 29.56 in1001.0 mb 0.00 in0.0 mm 0.00 in0.0 mm 0.00 in0.0 mm
04:47 AM 53.2°F11.8°C 52.3°F11.3°C 97% Calm Calm -- 29.56 in1001.0 mb 0.00 in0.0 mm 0.00 in0.0 mm 0.00 in0.0 mm
04:52 AM 53.2°F11.8°C 52.3°F11.3°C 97% Calm Calm -- 29.56 in1001.0 mb 0.00 in0.0 mm 0.00 in0.0 mm 0.00 in0.0 mm
04:57 AM 53.2°F11.8°C 52.3°F11.3°C 97% Calm Calm -- 29.56 in1001.0 mb 0.00 in0.0 mm 0.00 in0.0 mm 0.00 in0.0 mm
05:02 AM 53.1°F11.7°C 52.2°F11.2°C 97% Calm Calm -- 29.56 in1001.0 mb 0.00 in0.0 mm 0.00 in0.0 mm 0.00 in0.0 mm
05:07 AM 53.1°F11.7°C 52.2°F11.2°C 97% Calm Calm -- 29.56 in1001.0 mb 0.00 in0.0 mm 0.00 in0.0 mm 0.00 in0.0 mm
05:12 AM 53.1°F11.7°C 52.2°F11.2°C 97% Calm Calm -- 29.56 in1001.0 mb 0.00 in0.0 mm 0.00 in0.0 mm 0.00 in0.0 mm
05:17 AM 53.1°F11.7°C 52.2°F11.2°C 97% Calm Calm -- 29.56 in1001.0 mb 0.00 in0.0 mm 0.00 in0.0 mm 0.00 in0.0 mm
05:22 AM 53.1°F11.7°C 52.2°F11.2°C 97% Calm Calm -- 29.56 in1001.0 mb 0.00 in0.0 mm 0.00 in0.0 mm 0.00 in0.0 mm
05:27 AM 53.1°F11.7°C 52.2°F11.2°C 97% Calm Calm -- 29.56 in1001.0 mb 0.00 in0.0 mm 0.00 in0.0 mm 0.00 in0.0 mm
05:32 AM 53.1°F11.7°C 52.2°F11.2°C 97% Calm Calm -- 29.57 in1001.4 mb 0.00 in0.0 mm 0.00 in0.0 mm 0.00 in0.0 mm
05:37 AM 53.1°F11.7°C 52.2°F11.2°C 97% Calm Calm -- 29.57 in1001.4 mb 0.00 in0.0 mm 0.00 in0.0 mm 0.00 in0.0 mm
05:42 AM 52.9°F11.6°C 52.0°F11.1°C 97% Calm Calm -- 29.57 in1001.4 mb 0.00 in0.0 mm 0.00 in0.0 mm 0.00 in0.0 mm
05:47 AM 53.1°F11.7°C 52.2°F11.2°C 97% Calm Calm -- 29.57 in1001.4 mb 0.00 in0.0 mm 0.00 in0.0 mm 0.00 in0.0 mm
05:52 AM 53.1°F11.7°C 52.2°F11.2°C 97% Calm Calm 0.9 mph1.4 kmh 29.57 in1001.4 mb 0.00 in0.0 mm 0.00 in0.0 mm 0.00 in0.0 mm
05:57 AM 53.1°F11.7°C 52.2°F11.2°C 97% Calm Calm -- 29.57 in1001.4 mb 0.00 in0.0 mm 0.00 in0.0 mm 0.00 in0.0 mm
06:02 AM 53.2°F11.8°C 52.3°F11.3°C 97% Calm Calm 0.9 mph1.4 kmh 29.57 in1001.4 mb 0.00 in0.0 mm 0.00 in0.0 mm 0.00 in0.0 mm
06:07 AM 53.2°F11.8°C 52.3°F11.3°C 97% Calm Calm -- 29.58 in1001.7 mb 0.00 in0.0 mm 0.00 in0.0 mm 0.00 in0.0 mm
06:12 AM 53.2°F11.8°C 52.3°F11.3°C 97% Calm Calm -- 29.58 in1001.7 mb 0.00 in0.0 mm 0.00 in0.0 mm 0.00 in0.0 mm
06:17 AM 53.4°F11.9°C 52.5°F11.4°C 97% Calm Calm -- 29.58 in1001.7 mb 0.00 in0.0 mm 0.00 in0.0 mm 0.00 in0.0 mm
06:22 AM 53.4°F11.9°C 52.5°F11.4°C 97% Calm Calm -- 29.58 in1001.7 mb 0.00 in0.0 mm 0.00 in0.0 mm 0.00 in0.0 mm
06:27 AM 53.6°F12.0°C 52.7°F11.5°C 97% Calm Calm 0.9 mph1.4 kmh 29.58 in1001.7 mb 0.00 in0.0 mm 0.00 in0.0 mm 0.00 in0.0 mm
06:32 AM 53.8°F12.1°C 52.9°F11.6°C 97% Calm Calm -- 29.58 in1001.7 mb 0.00 in0.0 mm 0.00 in0.0 mm 0.00 in0.0 mm
06:37 AM 54.0°F12.2°C 53.1°F11.7°C 97% Calm Calm -- 29.58 in1001.7 mb 0.01 in0.3 mm 0.12 in3.0 mm 0.01 in0.3 mm
06:42 AM 54.7°F12.6°C 54.1°F12.3°C 98% Calm Calm -- 29.58 in1001.7 mb 0.01 in0.3 mm 0.00 in0.0 mm 0.01 in0.3 mm
06:47 AM 55.0°F12.8°C 54.5°F12.5°C 98% Calm Calm 1.0 mph1.6 kmh 29.58 in1001.7 mb 0.01 in0.3 mm 0.00 in0.0 mm 0.01 in0.3 mm
06:52 AM 55.6°F13.1°C 55.0°F12.8°C 98% Calm Calm -- 29.58 in1001.7 mb 0.01 in0.3 mm 0.00 in0.0 mm 0.01 in0.3 mm
06:57 AM 55.9°F13.3°C 55.4°F13.0°C 98% Calm Calm -- 29.58 in1001.7 mb 0.01 in0.3 mm 0.00 in0.0 mm 0.01 in0.3 mm
07:02 AM 56.1°F13.4°C 55.6°F13.1°C 98% Calm Calm -- 29.58 in1001.7 mb 0.01 in0.3 mm 0.00 in0.0 mm 0.01 in0.3 mm
07:07 AM 56.5°F13.6°C 55.9°F13.3°C 98% Calm Calm -- 29.58 in1001.7 mb 0.01 in0.3 mm 0.00 in0.0 mm 0.01 in0.3 mm
07:12 AM 57.0°F13.9°C 56.5°F13.6°C 98% Calm Calm -- 29.58 in1001.7 mb 0.01 in0.3 mm 0.00 in0.0 mm 0.01 in0.3 mm
07:17 AM 57.6°F14.2°C 57.0°F13.9°C 98% Calm Calm -- 29.58 in1001.7 mb 0.01 in0.3 mm 0.00 in0.0 mm 0.01 in0.3 mm
07:22 AM 57.9°F14.4°C 57.4°F14.1°C 98% Calm Calm -- 29.58 in1001.7 mb 0.01 in0.3 mm 0.00 in0.0 mm 0.01 in0.3 mm
07:27 AM 58.3°F14.6°C 57.4°F14.1°C 97% Calm Calm -- 29.58 in1001.7 mb 0.01 in0.3 mm 0.00 in0.0 mm 0.01 in0.3 mm
07:32 AM 58.6°F14.8°C 57.7°F14.3°C 97% Calm Calm -- 29.58 in1001.7 mb 0.01 in0.3 mm 0.00 in0.0 mm 0.01 in0.3 mm
07:37 AM 58.8°F14.9°C 57.7°F14.3°C 96% Calm Calm -- 29.58 in1001.7 mb 0.00 in0.0 mm 0.00 in0.0 mm 0.01 in0.3 mm
07:42 AM 59.2°F15.1°C 57.7°F14.3°C 95% Calm Calm -- 29.58 in1001.7 mb 0.00 in0.0 mm 0.00 in0.0 mm 0.01 in0.3 mm
07:47 AM 59.5°F15.3°C 57.7°F14.3°C 94% Calm Calm -- 29.59 in1002.0 mb 0.00 in0.0 mm 0.00 in0.0 mm 0.01 in0.3 mm
07:52 AM 59.9°F15.5°C 57.9°F14.4°C 93% Calm Calm -- 29.59 in1002.0 mb 0.00 in0.0 mm 0.00 in0.0 mm 0.01 in0.3 mm
07:57 AM 60.4°F15.8°C 58.1°F14.5°C 92% Calm Calm -- 29.59 in1002.0 mb 0.00 in0.0 mm 0.00 in0.0 mm 0.01 in0.3 mm
08:02 AM 60.6°F15.9°C 57.7°F14.3°C 90% Calm Calm 3.0 mph4.8 kmh 29.59 in1002.0 mb 0.00 in0.0 mm 0.00 in0.0 mm 0.01 in0.3 mm
08:07 AM 60.8°F16.0°C 58.5°F14.7°C 92% Calm Calm 2.9 mph4.7 kmh 29.59 in1002.0 mb 0.00 in0.0 mm 0.00 in0.0 mm 0.01 in0.3 mm
08:12 AM 61.2°F16.2°C 58.5°F14.7°C 91% 0.9 mph SE1.4 kmh SE 2.0 mph3.2 kmh 29.59 in1002.0 mb 0.00 in0.0 mm 0.00 in0.0 mm 0.01 in0.3 mm
08:17 AM 61.3°F16.3°C 58.5°F14.7°C 90% Calm Calm -- 29.59 in1002.0 mb 0.00 in0.0 mm 0.00 in0.0 mm 0.01 in0.3 mm
08:22 AM 61.9°F16.6°C 59.0°F15.0°C 90% Calm Calm -- 29.59 in1002.0 mb 0.00 in0.0 mm 0.00 in0.0 mm 0.01 in0.3 mm
08:27 AM 62.1°F16.7°C 58.5°F14.7°C 88% Calm Calm 3.0 mph4.8 kmh 29.59 in1002.0 mb 0.00 in0.0 mm 0.00 in0.0 mm 0.01 in0.3 mm
08:32 AM 62.1°F16.7°C 58.1°F14.5°C 87% 0.9 mph SE1.4 kmh SE 2.0 mph3.2 kmh 29.59 in1002.0 mb 0.00 in0.0 mm 0.00 in0.0 mm 0.01 in0.3 mm
08:37 AM 62.4°F16.9°C 59.2°F15.1°C 89% 0.9 mph S1.4 kmh S 2.9 mph4.7 kmh 29.59 in1002.0 mb 0.00 in0.0 mm 0.00 in0.0 mm 0.01 in0.3 mm
08:42 AM 62.8°F17.1°C 59.2°F15.1°C 88% 0.9 mph SW1.4 kmh SW 4.0 mph6.4 kmh 29.59 in1002.0 mb 0.00 in0.0 mm 0.00 in0.0 mm 0.01 in0.3 mm
08:47 AM 63.0°F17.2°C 58.1°F14.5°C 84% 0.9 mph SW1.4 kmh SW 4.0 mph6.4 kmh 29.59 in1002.0 mb 0.00 in0.0 mm 0.00 in0.0 mm 0.01 in0.3 mm
08:52 AM 63.1°F17.3°C 57.9°F14.4°C 83% 2.0 mph SW3.2 kmh SW 6.9 mph11.1 kmh 29.59 in1002.0 mb 0.00 in0.0 mm 0.00 in0.0 mm 0.01 in0.3 mm
08:57 AM 63.1°F17.3°C 58.6°F14.8°C 85% 2.9 mph SW4.7 kmh SW 6.9 mph11.1 kmh 29.59 in1002.0 mb 0.00 in0.0 mm 0.00 in0.0 mm 0.01 in0.3 mm
09:02 AM 63.3°F17.4°C 58.5°F14.7°C 84% 2.0 mph SW3.2 kmh SW 4.0 mph6.4 kmh 29.59 in1002.0 mb 0.00 in0.0 mm 0.00 in0.0 mm 0.01 in0.3 mm
09:07 AM 63.7°F17.6°C 58.5°F14.7°C 83% 2.0 mph SW3.2 kmh SW 4.0 mph6.4 kmh 29.59 in1002.0 mb 0.00 in0.0 mm 0.00 in0.0 mm 0.01 in0.3 mm
09:12 AM 64.0°F17.8°C 59.2°F15.1°C 84% 2.0 mph SW3.2 kmh SW 5.0 mph8.0 kmh 29.59 in1002.0 mb 0.00 in0.0 mm 0.00 in0.0 mm 0.01 in0.3 mm
09:17 AM 64.2°F17.9°C 58.3°F14.6°C 81% 2.0 mph SW3.2 kmh SW 4.9 mph7.9 kmh 29.59 in1002.0 mb 0.00 in0.0 mm 0.00 in0.0 mm 0.01 in0.3 mm
09:22 AM 64.8°F18.2°C 58.8°F14.9°C 81% 2.0 mph W3.2 kmh W 4.0 mph6.4 kmh 29.59 in1002.0 mb 0.00 in0.0 mm 0.00 in0.0 mm 0.01 in0.3 mm
09:27 AM 65.3°F18.5°C 59.4°F15.2°C 81% 0.9 mph SW1.4 kmh SW 2.9 mph4.7 kmh 29.59 in1002.0 mb 0.00 in0.0 mm 0.00 in0.0 mm 0.01 in0.3 mm
09:32 AM 65.5°F18.6°C 58.5°F14.7°C 78% 2.0 mph SW3.2 kmh SW 4.0 mph6.4 kmh 29.59 in1002.0 mb 0.00 in0.0 mm 0.00 in0.0 mm 0.01 in0.3 mm
09:37 AM 65.7°F18.7°C 58.6°F14.8°C 78% 2.0 mph SW3.2 kmh SW 4.9 mph7.9 kmh 29.59 in1002.0 mb 0.00 in0.0 mm 0.00 in0.0 mm 0.01 in0.3 mm
09:42 AM 66.4°F19.1°C 59.0°F15.0°C 77% 0.9 mph SW1.4 kmh SW 4.0 mph6.4 kmh 29.59 in1002.0 mb 0.00 in0.0 mm 0.00 in0.0 mm 0.01 in0.3 mm
09:47 AM 66.6°F19.2°C 58.8°F14.9°C 76% 2.0 mph SW3.2 kmh SW 7.0 mph11.3 kmh 29.59 in1002.0 mb 0.00 in0.0 mm 0.00 in0.0 mm 0.01 in0.3 mm
09:52 AM 66.4°F19.1°C 58.3°F14.6°C 75% 2.9 mph SW4.7 kmh SW 6.0 mph9.7 kmh 29.59 in1002.0 mb 0.00 in0.0 mm 0.00 in0.0 mm 0.01 in0.3 mm
09:57 AM 66.7°F19.3°C 59.4°F15.2°C 77% 2.9 mph SSW4.7 kmh SSW 4.9 mph7.9 kmh 29.59 in1002.0 mb 0.00 in0.0 mm 0.00 in0.0 mm 0.01 in0.3 mm
10:02 AM 66.9°F19.4°C 58.3°F14.6°C 74% 2.0 mph SW3.2 kmh SW 4.0 mph6.4 kmh 29.59 in1002.0 mb 0.00 in0.0 mm 0.00 in0.0 mm 0.01 in0.3 mm
10:07 AM 67.3°F19.6°C 59.0°F15.0°C 75% 2.9 mph SW4.7 kmh SW 7.0 mph11.3 kmh 29.59 in1002.0 mb 0.00 in0.0 mm 0.00 in0.0 mm 0.01 in0.3 mm
10:12 AM 67.5°F19.7°C 59.5°F15.3°C 76% 2.0 mph SW3.2 kmh SW 2.9 mph4.7 kmh 29.59 in1002.0 mb 0.00 in0.0 mm 0.00 in0.0 mm 0.01 in0.3 mm
10:17 AM 67.6°F19.8°C 59.0°F15.0°C 74% 2.0 mph WSW3.2 kmh WSW 6.9 mph11.1 kmh 29.59 in1002.0 mb 0.00 in0.0 mm 0.00 in0.0 mm 0.01 in0.3 mm
10:22 AM 68.0°F20.0°C 58.6°F14.8°C 72% 2.0 mph SW3.2 kmh SW 4.9 mph7.9 kmh 29.59 in1002.0 mb 0.00 in0.0 mm 0.00 in0.0 mm 0.01 in0.3 mm
10:27 AM 68.4°F20.2°C 59.4°F15.2°C 73% 2.0 mph SW3.2 kmh SW 4.9 mph7.9 kmh 29.59 in1002.0 mb 0.00 in0.0 mm 0.00 in0.0 mm 0.01 in0.3 mm
10:32 AM 68.5°F20.3°C 59.2°F15.1°C 72% 2.0 mph SW3.2 kmh SW 4.9 mph7.9 kmh 29.59 in1002.0 mb 0.00 in0.0 mm 0.00 in0.0 mm 0.01 in0.3 mm
10:37 AM 68.7°F20.4°C 59.4°F15.2°C 72% 2.9 mph SW4.7 kmh SW 6.0 mph9.7 kmh 29.60 in1002.4 mb 0.00 in0.0 mm 0.00 in0.0 mm 0.01 in0.3 mm
10:42 AM 69.1°F20.6°C 58.8°F14.9°C 70% 2.0 mph SSW3.2 kmh SSW 4.9 mph7.9 kmh 29.59 in1002.0 mb 0.00 in0.0 mm 0.00 in0.0 mm 0.01 in0.3 mm
10:47 AM 69.6°F20.9°C 60.3°F15.7°C 72% 0.9 mph SW1.4 kmh SW 4.0 mph6.4 kmh 29.59 in1002.0 mb 0.00 in0.0 mm 0.00 in0.0 mm 0.01 in0.3 mm
10:52 AM 70.0°F21.1°C 59.4°F15.2°C 69% 2.0 mph SW3.2 kmh SW 5.0 mph8.0 kmh 29.59 in1002.0 mb 0.00 in0.0 mm 0.00 in0.0 mm 0.01 in0.3 mm
10:57 AM 70.2°F21.2°C 60.6°F15.9°C 72% 2.0 mph SW3.2 kmh SW 5.0 mph8.0 kmh 29.59 in1002.0 mb 0.00 in0.0 mm 0.00 in0.0 mm 0.01 in0.3 mm
11:02 AM 70.3°F21.3°C 59.7°F15.4°C 69% 2.0 mph SW3.2 kmh SW 4.0 mph6.4 kmh 29.59 in1002.0 mb 0.00 in0.0 mm 0.00 in0.0 mm 0.01 in0.3 mm
11:07 AM 70.7°F21.5°C 59.5°F15.3°C 68% 2.0 mph SW3.2 kmh SW 4.9 mph7.9 kmh 29.59 in1002.0 mb 0.00 in0.0 mm 0.00 in0.0 mm 0.01 in0.3 mm
11:12 AM 70.9°F21.6°C 60.3°F15.7°C 69% 2.0 mph SW3.2 kmh SW 4.0 mph6.4 kmh 29.60 in1002.4 mb 0.00 in0.0 mm 0.00 in0.0 mm 0.01 in0.3 mm
11:17 AM 71.1°F21.7°C 60.8°F16.0°C 70% 2.0 mph SW3.2 kmh SW 6.0 mph9.7 kmh 29.59 in1002.0 mb 0.00 in0.0 mm 0.00 in0.0 mm 0.01 in0.3 mm
11:22 AM 71.4°F21.9°C 59.5°F15.3°C 66% 2.0 mph WNW3.2 kmh WNW 4.0 mph6.4 kmh 29.59 in1002.0 mb 0.00 in0.0 mm 0.00 in0.0 mm 0.01 in0.3 mm
11:27 AM 71.8°F22.1°C 59.4°F15.2°C 65% 0.9 mph NE1.4 kmh NE 2.9 mph4.7 kmh 29.59 in1002.0 mb 0.00 in0.0 mm 0.00 in0.0 mm 0.01 in0.3 mm
11:32 AM 72.3°F22.4°C 59.5°F15.3°C 64% 0.9 mph SW1.4 kmh SW 2.9 mph4.7 kmh 29.59 in1002.0 mb 0.00 in0.0 mm 0.00 in0.0 mm 0.01 in0.3 mm
11:37 AM 72.7°F22.6°C 59.4°F15.2°C 63% 0.9 mph E1.4 kmh E 2.9 mph4.7 kmh 29.59 in1002.0 mb 0.00 in0.0 mm 0.00 in0.0 mm 0.01 in0.3 mm
11:42 AM 73.0°F22.8°C 60.1°F15.6°C 64% 0.9 mph SE1.4 kmh SE 2.9 mph4.7 kmh 29.59 in1002.0 mb 0.00 in0.0 mm 0.00 in0.0 mm 0.01 in0.3 mm
11:47 AM 73.6°F23.1°C 59.7°F15.4°C 62% 0.9 mph SW1.4 kmh SW 4.0 mph6.4 kmh 29.59 in1002.0 mb 0.00 in0.0 mm 0.00 in0.0 mm 0.01 in0.3 mm
11:52 AM 73.9°F23.3°C 60.6°F15.9°C 63% 0.9 mph SW1.4 kmh SW 4.0 mph6.4 kmh 29.59 in1002.0 mb 0.00 in0.0 mm 0.00 in0.0 mm 0.01 in0.3 mm
11:57 AM 74.1°F23.4°C 60.3°F15.7°C 62% 2.0 mph NNW3.2 kmh NNW 5.0 mph8.0 kmh 29.59 in1002.0 mb 0.00 in0.0 mm 0.00 in0.0 mm 0.01 in0.3 mm
12:02 PM 73.8°F23.2°C 59.5°F15.3°C 61% 2.0 mph NW3.2 kmh NW 2.9 mph4.7 kmh 29.59 in1002.0 mb 0.00 in0.0 mm 0.00 in0.0 mm 0.01 in0.3 mm
12:07 PM 73.2°F22.9°C 58.5°F14.7°C 60% 0.9 mph NE1.4 kmh NE 2.9 mph4.7 kmh 29.59 in1002.0 mb 0.00 in0.0 mm 0.00 in0.0 mm 0.01 in0.3 mm
12:12 PM 72.7°F22.6°C 57.9°F14.4°C 60% 0.9 mph E1.4 kmh E 4.0 mph6.4 kmh 29.58 in1001.7 mb 0.00 in0.0 mm 0.00 in0.0 mm 0.01 in0.3 mm
12:17 PM 72.5°F22.5°C 57.7°F14.3°C 60% 0.9 mph E1.4 kmh E 2.9 mph4.7 kmh 29.58 in1001.7 mb 0.00 in0.0 mm 0.00 in0.0 mm 0.01 in0.3 mm
12:22 PM 73.0°F22.8°C 59.7°F15.4°C 63% 0.9 mph SE1.4 kmh SE 2.0 mph3.2 kmh 29.58 in1001.7 mb 0.00 in0.0 mm 0.00 in0.0 mm 0.01 in0.3 mm
12:27 PM 73.8°F23.2°C 59.9°F15.5°C 62% 0.9 mph SE1.4 kmh SE 2.0 mph3.2 kmh 29.58 in1001.7 mb 0.00 in0.0 mm 0.00 in0.0 mm 0.01 in0.3 mm
12:32 PM 74.1°F23.4°C 59.4°F15.2°C 60% 0.9 mph SW1.4 kmh SW 4.9 mph7.9 kmh 29.58 in1001.7 mb 0.00 in0.0 mm 0.00 in0.0 mm 0.01 in0.3 mm
12:37 PM 74.3°F23.5°C 58.6°F14.8°C 58% 0.9 mph NW1.4 kmh NW 4.0 mph6.4 kmh 29.57 in1001.4 mb 0.00 in0.0 mm 0.00 in0.0 mm 0.01 in0.3 mm
12:42 PM 73.9°F23.3°C 59.2°F15.1°C 60% 0.9 mph NE1.4 kmh NE 4.0 mph6.4 kmh 29.57 in1001.4 mb 0.00 in0.0 mm 0.00 in0.0 mm 0.01 in0.3 mm
12:47 PM 73.9°F23.3°C 59.2°F15.1°C 60% 2.0 mph SW3.2 kmh SW 7.0 mph11.3 kmh 29.57 in1001.4 mb 0.00 in0.0 mm 0.00 in0.0 mm 0.01 in0.3 mm
12:52 PM 74.1°F23.4°C 58.8°F14.9°C 59% 2.0 mph SW3.2 kmh SW 4.0 mph6.4 kmh 29.57 in1001.4 mb 0.00 in0.0 mm 0.00 in0.0 mm 0.01 in0.3 mm
12:57 PM 74.1°F23.4°C 59.4°F15.2°C 60% 0.9 mph SW1.4 kmh SW 2.9 mph4.7 kmh 29.57 in1001.4 mb 0.00 in0.0 mm 0.00 in0.0 mm 0.01 in0.3 mm
01:02 PM 74.7°F23.7°C 59.4°F15.2°C 59% 0.9 mph SW1.4 kmh SW 4.0 mph6.4 kmh 29.57 in1001.4 mb 0.00 in0.0 mm 0.00 in0.0 mm 0.01 in0.3 mm
01:07 PM 74.8°F23.8°C 58.6°F14.8°C 57% 0.9 mph NW1.4 kmh NW 2.9 mph4.7 kmh 29.57 in1001.4 mb 0.00 in0.0 mm 0.00 in0.0 mm 0.01 in0.3 mm
01:12 PM 75.0°F23.9°C 59.2°F15.1°C 58% 0.9 mph SW1.4 kmh SW 2.9 mph4.7 kmh 29.57 in1001.4 mb 0.00 in0.0 mm 0.00 in0.0 mm 0.01 in0.3 mm
01:17 PM 74.8°F23.8°C 59.5°F15.3°C 59% 0.9 mph W1.4 kmh W 2.9 mph4.7 kmh 29.57 in1001.4 mb 0.00 in0.0 mm 0.00 in0.0 mm 0.01 in0.3 mm
01:22 PM 74.7°F23.7°C 58.8°F14.9°C 58% 0.9 mph NW1.4 kmh NW 4.9 mph7.9 kmh 29.57 in1001.4 mb 0.00 in0.0 mm 0.00 in0.0 mm 0.01 in0.3 mm
01:27 PM 74.1°F23.4°C 58.8°F14.9°C 59% 0.9 mph NNE1.4 kmh NNE 2.9 mph4.7 kmh 29.57 in1001.4 mb 0.00 in0.0 mm 0.00 in0.0 mm 0.01 in0.3 mm
01:32 PM 73.9°F23.3°C 59.2°F15.1°C 60% Calm Calm 2.0 mph3.2 kmh 29.57 in1001.4 mb 0.00 in0.0 mm 0.00 in0.0 mm 0.01 in0.3 mm
01:37 PM 73.8°F23.2°C 61.3°F16.3°C 65% Calm Calm 0.9 mph1.4 kmh 29.57 in1001.4 mb 0.00 in0.0 mm 0.00 in0.0 mm 0.01 in0.3 mm
01:42 PM 73.4°F23.0°C 59.5°F15.3°C 62% Calm Calm 2.0 mph3.2 kmh 29.57 in1001.4 mb 0.00 in0.0 mm 0.00 in0.0 mm 0.01 in0.3 mm
01:47 PM 73.0°F22.8°C 61.0°F16.1°C 66% Calm Calm 4.0 mph6.4 kmh 29.57 in1001.4 mb 0.00 in0.0 mm 0.00 in0.0 mm 0.01 in0.3 mm
01:52 PM 72.9°F22.7°C 60.4°F15.8°C 65% 0.9 mph SW1.4 kmh SW 2.0 mph3.2 kmh 29.58 in1001.7 mb 0.00 in0.0 mm 0.00 in0.0 mm 0.01 in0.3 mm
01:57 PM 72.3°F22.4°C 59.0°F15.0°C 63% 0.9 mph SW1.4 kmh SW 4.0 mph6.4 kmh 29.58 in1001.7 mb 0.00 in0.0 mm 0.00 in0.0 mm 0.01 in0.3 mm
02:02 PM 72.1°F22.3°C 58.8°F14.9°C 63% 2.0 mph SW3.2 kmh SW 5.0 mph8.0 kmh 29.58 in1001.7 mb 0.00 in0.0 mm 0.00 in0.0 mm 0.01 in0.3 mm
02:07 PM 71.8°F22.1°C 59.7°F15.4°C 66% 2.9 mph SW4.7 kmh SW 10.1 mph16.3 kmh 29.58 in1001.7 mb 0.00 in0.0 mm 0.00 in0.0 mm 0.01 in0.3 mm
02:12 PM 71.2°F21.8°C 60.1°F15.6°C 68% 4.0 mph SW6.4 kmh SW 8.1 mph13.0 kmh 29.59 in1002.0 mb 0.00 in0.0 mm 0.00 in0.0 mm 0.01 in0.3 mm
02:17 PM 70.5°F21.4°C 60.3°F15.7°C 70% 2.9 mph SW4.7 kmh SW 4.9 mph7.9 kmh 29.59 in1002.0 mb 0.00 in0.0 mm 0.00 in0.0 mm 0.01 in0.3 mm
02:22 PM 70.2°F21.2°C 59.9°F15.5°C 70% 2.9 mph SW4.7 kmh SW 6.0 mph9.7 kmh 29.59 in1002.0 mb 0.00 in0.0 mm 0.00 in0.0 mm 0.01 in0.3 mm
02:27 PM 70.3°F21.3°C 60.8°F16.0°C 72% 2.0 mph SW3.2 kmh SW 4.9 mph7.9 kmh 29.58 in1001.7 mb 0.00 in0.0 mm 0.00 in0.0 mm 0.01 in0.3 mm
02:32 PM 70.9°F21.6°C 61.0°F16.1°C 71% 2.0 mph SW3.2 kmh SW 4.9 mph7.9 kmh 29.58 in1001.7 mb 0.00 in0.0 mm 0.00 in0.0 mm 0.01 in0.3 mm
02:37 PM 71.8°F22.1°C 60.3°F15.7°C 67% 2.0 mph SW3.2 kmh SW 8.1 mph13.0 kmh 29.58 in1001.7 mb 0.00 in0.0 mm 0.00 in0.0 mm 0.01 in0.3 mm
02:42 PM 72.7°F22.6°C 61.2°F16.2°C 67% 2.9 mph SW4.7 kmh SW 6.9 mph11.1 kmh 29.58 in1001.7 mb 0.00 in0.0 mm 0.00 in0.0 mm 0.01 in0.3 mm
02:47 PM 73.4°F23.0°C 61.7°F16.5°C 67% 4.0 mph SW6.4 kmh SW 8.1 mph13.0 kmh 29.58 in1001.7 mb 0.00 in0.0 mm 0.00 in0.0 mm 0.01 in0.3 mm
02:52 PM 74.3°F23.5°C 61.3°F16.3°C 64% 4.0 mph SW6.4 kmh SW 8.9 mph14.3 kmh 29.58 in1001.7 mb 0.00 in0.0 mm 0.00 in0.0 mm 0.01 in0.3 mm
02:57 PM 74.7°F23.7°C 58.5°F14.7°C 57% 2.9 mph SW4.7 kmh SW 11.0 mph17.7 kmh 29.58 in1001.7 mb 0.00 in0.0 mm 0.00 in0.0 mm 0.01 in0.3 mm
03:02 PM 74.7°F23.7°C 57.9°F14.4°C 56% 4.0 mph SW6.4 kmh SW 10.1 mph16.3 kmh 29.58 in1001.7 mb 0.00 in0.0 mm 0.00 in0.0 mm 0.01 in0.3 mm
03:07 PM 75.2°F24.0°C 57.9°F14.4°C 55% 4.0 mph SW6.4 kmh SW 6.9 mph11.1 kmh 29.58 in1001.7 mb 0.00 in0.0 mm 0.00 in0.0 mm 0.01 in0.3 mm
03:12 PM 75.2°F24.0°C 57.4°F14.1°C 54% 4.0 mph SSW6.4 kmh SSW 10.1 mph16.3 kmh 29.57 in1001.4 mb 0.00 in0.0 mm 0.00 in0.0 mm 0.01 in0.3 mm
03:17 PM 74.5°F23.6°C 56.7°F13.7°C 54% 4.0 mph W6.4 kmh W 6.9 mph11.1 kmh 29.58 in1001.7 mb 0.00 in0.0 mm 0.00 in0.0 mm 0.01 in0.3 mm
03:22 PM 73.6°F23.1°C 55.9°F13.3°C 54% 4.0 mph SW6.4 kmh SW 8.0 mph12.9 kmh 29.58 in1001.7 mb 0.00 in0.0 mm 0.00 in0.0 mm 0.01 in0.3 mm
03:27 PM 72.9°F22.7°C 55.2°F12.9°C 54% 2.9 mph SW4.7 kmh SW 6.0 mph9.7 kmh 29.58 in1001.7 mb 0.00 in0.0 mm 0.00 in0.0 mm 0.01 in0.3 mm
03:32 PM 72.9°F22.7°C 55.8°F13.2°C 55% 2.0 mph SW3.2 kmh SW 2.0 mph3.2 kmh 29.57 in1001.4 mb 0.00 in0.0 mm 0.00 in0.0 mm 0.01 in0.3 mm
03:37 PM 73.2°F22.9°C 57.0°F13.9°C 57% 0.9 mph SW1.4 kmh SW 4.0 mph6.4 kmh 29.57 in1001.4 mb 0.00 in0.0 mm 0.00 in0.0 mm 0.01 in0.3 mm
03:42 PM 73.9°F23.3°C 58.6°F14.8°C 59% 0.9 mph SW1.4 kmh SW 4.9 mph7.9 kmh 29.57 in1001.4 mb 0.00 in0.0 mm 0.00 in0.0 mm 0.01 in0.3 mm
03:47 PM 74.5°F23.6°C 57.7°F14.3°C 56% 2.0 mph SW3.2 kmh SW 2.9 mph4.7 kmh 29.57 in1001.4 mb 0.00 in0.0 mm 0.00 in0.0 mm 0.01 in0.3 mm
03:52 PM 74.3°F23.5°C 57.6°F14.2°C 56% 0.9 mph SW1.4 kmh SW 2.0 mph3.2 kmh 29.57 in1001.4 mb 0.00 in0.0 mm 0.00 in0.0 mm 0.01 in0.3 mm
03:57 PM 74.3°F23.5°C 57.0°F13.9°C 55% 0.9 mph SW1.4 kmh SW 2.0 mph3.2 kmh 29.57 in1001.4 mb 0.00 in0.0 mm 0.00 in0.0 mm 0.01 in0.3 mm
04:02 PM 74.1°F23.4°C 59.4°F15.2°C 60% Calm Calm 0.9 mph1.4 kmh 29.57 in1001.4 mb 0.00 in0.0 mm 0.00 in0.0 mm 0.01 in0.3 mm
04:07 PM 73.9°F23.3°C 59.7°F15.4°C 61% 0.9 mph SW1.4 kmh SW 2.0 mph3.2 kmh 29.57 in1001.4 mb 0.00 in0.0 mm 0.00 in0.0 mm 0.01 in0.3 mm
04:12 PM 73.9°F23.3°C 60.1°F15.6°C 62% 0.9 mph SW1.4 kmh SW 3.0 mph4.8 kmh 29.57 in1001.4 mb 0.00 in0.0 mm 0.00 in0.0 mm 0.01 in0.3 mm
04:17 PM 74.1°F23.4°C 58.5°F14.7°C 58% Calm Calm 0.9 mph1.4 kmh 29.57 in1001.4 mb 0.00 in0.0 mm 0.00 in0.0 mm 0.01 in0.3 mm
04:22 PM 74.5°F23.6°C 57.7°F14.3°C 56% Calm Calm 2.0 mph3.2 kmh 29.57 in1001.4 mb 0.00 in0.0 mm 0.00 in0.0 mm 0.01 in0.3 mm
04:27 PM 75.2°F24.0°C 58.5°F14.7°C 56% 0.9 mph SW1.4 kmh SW 6.0 mph9.7 kmh 29.57 in1001.4 mb 0.00 in0.0 mm 0.00 in0.0 mm 0.01 in0.3 mm
04:32 PM 75.7°F24.3°C 59.4°F15.2°C 57% 0.9 mph SW1.4 kmh SW 6.0 mph9.7 kmh 29.56 in1001.0 mb 0.00 in0.0 mm 0.00 in0.0 mm 0.01 in0.3 mm
04:37 PM 75.9°F24.4°C 57.6°F14.2°C 53% 2.0 mph SW3.2 kmh SW 7.0 mph11.3 kmh 29.57 in1001.4 mb 0.00 in0.0 mm 0.00 in0.0 mm 0.01 in0.3 mm
04:42 PM 75.4°F24.1°C 58.6°F14.8°C 56% 2.0 mph SW3.2 kmh SW 4.0 mph6.4 kmh 29.57 in1001.4 mb 0.00 in0.0 mm 0.00 in0.0 mm 0.01 in0.3 mm
04:47 PM 74.5°F23.6°C 58.3°F14.6°C 57% 2.0 mph SW3.2 kmh SW 8.1 mph13.0 kmh 29.58 in1001.7 mb 0.00 in0.0 mm 0.00 in0.0 mm 0.01 in0.3 mm
04:52 PM 73.6°F23.1°C 58.3°F14.6°C 59% 2.9 mph WSW4.7 kmh WSW 10.1 mph16.3 kmh 29.58 in1001.7 mb 0.00 in0.0 mm 0.00 in0.0 mm 0.01 in0.3 mm
04:57 PM 72.7°F22.6°C 57.6°F14.2°C 59% 2.9 mph SSW4.7 kmh SSW 11.0 mph17.7 kmh 29.58 in1001.7 mb 0.00 in0.0 mm 0.00 in0.0 mm 0.01 in0.3 mm
05:02 PM 72.0°F22.2°C 56.3°F13.5°C 58% 2.9 mph W4.7 kmh W 8.9 mph14.3 kmh 29.58 in1001.7 mb 0.00 in0.0 mm 0.00 in0.0 mm 0.01 in0.3 mm
05:07 PM 71.6°F22.0°C 55.6°F13.1°C 57% 2.9 mph WSW4.7 kmh WSW 2.9 mph4.7 kmh 29.57 in1001.4 mb 0.00 in0.0 mm 0.00 in0.0 mm 0.01 in0.3 mm
05:12 PM 72.0°F22.2°C 55.4°F13.0°C 56% 0.9 mph SW1.4 kmh SW 6.0 mph9.7 kmh 29.57 in1001.4 mb 0.00 in0.0 mm 0.00 in0.0 mm 0.01 in0.3 mm
05:17 PM 72.5°F22.5°C 54.9°F12.7°C 54% 2.0 mph SSW3.2 kmh SSW 7.0 mph11.3 kmh 29.57 in1001.4 mb 0.00 in0.0 mm 0.00 in0.0 mm 0.01 in0.3 mm
05:22 PM 72.7°F22.6°C 55.6°F13.1°C 55% 2.0 mph WSW3.2 kmh WSW 4.9 mph7.9 kmh 29.57 in1001.4 mb 0.00 in0.0 mm 0.00 in0.0 mm 0.01 in0.3 mm
05:27 PM 72.9°F22.7°C 57.7°F14.3°C 59% 0.9 mph NNW1.4 kmh NNW 2.9 mph4.7 kmh 29.58 in1001.7 mb 0.00 in0.0 mm 0.00 in0.0 mm 0.01 in0.3 mm
05:32 PM 72.7°F22.6°C 57.0°F13.9°C 58% 0.9 mph ENE1.4 kmh ENE 5.0 mph8.0 kmh 29.58 in1001.7 mb 0.00 in0.0 mm 0.00 in0.0 mm 0.01 in0.3 mm
05:37 PM 72.3°F22.4°C 58.1°F14.5°C 61% 2.0 mph SE3.2 kmh SE 2.9 mph4.7 kmh 29.58 in1001.7 mb 0.00 in0.0 mm 0.00 in0.0 mm 0.01 in0.3 mm
05:42 PM 71.8°F22.1°C 57.6°F14.2°C 61% 2.0 mph NW3.2 kmh NW 6.0 mph9.7 kmh 29.58 in1001.7 mb 0.00 in0.0 mm 0.00 in0.0 mm 0.01 in0.3 mm
05:47 PM 71.4°F21.9°C 57.7°F14.3°C 62% 2.0 mph NNW3.2 kmh NNW 4.9 mph7.9 kmh 29.59 in1002.0 mb 0.00 in0.0 mm 0.00 in0.0 mm 0.01 in0.3 mm
05:52 PM 70.9°F21.6°C 58.5°F14.7°C 65% 2.0 mph NW3.2 kmh NW 4.9 mph7.9 kmh 29.59 in1002.0 mb 0.00 in0.0 mm 0.00 in0.0 mm 0.01 in0.3 mm
05:57 PM 70.0°F21.1°C 58.5°F14.7°C 67% 2.0 mph ESE3.2 kmh ESE 4.9 mph7.9 kmh 29.59 in1002.0 mb 0.00 in0.0 mm 0.00 in0.0 mm 0.01 in0.3 mm
06:02 PM 69.1°F20.6°C 58.8°F14.9°C 70% 2.0 mph NNE3.2 kmh NNE 6.0 mph9.7 kmh 29.59 in1002.0 mb 0.00 in0.0 mm 0.00 in0.0 mm 0.01 in0.3 mm
06:07 PM 68.5°F20.3°C 59.2°F15.1°C 72% 2.0 mph N3.2 kmh N 4.0 mph6.4 kmh 29.59 in1002.0 mb 0.00 in0.0 mm 0.00 in0.0 mm 0.01 in0.3 mm
06:12 PM 68.5°F20.3°C 59.2°F15.1°C 72% 0.9 mph N1.4 kmh N 2.0 mph3.2 kmh 29.59 in1002.0 mb 0.00 in0.0 mm 0.00 in0.0 mm 0.01 in0.3 mm
06:17 PM 68.4°F20.2°C 59.7°F15.4°C 74% 0.9 mph NNE1.4 kmh NNE 2.0 mph3.2 kmh 29.59 in1002.0 mb 0.00 in0.0 mm 0.00 in0.0 mm 0.01 in0.3 mm
06:22 PM 68.2°F20.1°C 59.5°F15.3°C 74% 0.9 mph ESE1.4 kmh ESE 4.0 mph6.4 kmh 29.60 in1002.4 mb 0.00 in0.0 mm 0.00 in0.0 mm 0.01 in0.3 mm
06:27 PM 67.8°F19.9°C 59.2°F15.1°C 74% 0.9 mph E1.4 kmh E 2.9 mph4.7 kmh 29.60 in1002.4 mb 0.00 in0.0 mm 0.00 in0.0 mm 0.01 in0.3 mm
06:32 PM 67.6°F19.8°C 57.9°F14.4°C 71% 0.9 mph ENE1.4 kmh ENE 2.0 mph3.2 kmh 29.60 in1002.4 mb 0.00 in0.0 mm 0.00 in0.0 mm 0.01 in0.3 mm
06:37 PM 67.3°F19.6°C 57.2°F14.0°C 70% Calm Calm 2.0 mph3.2 kmh 29.60 in1002.4 mb 0.00 in0.0 mm 0.00 in0.0 mm 0.01 in0.3 mm
06:42 PM 67.3°F19.6°C 57.2°F14.0°C 70% Calm Calm -- 29.60 in1002.4 mb 0.00 in0.0 mm 0.00 in0.0 mm 0.01 in0.3 mm
06:47 PM 67.1°F19.5°C 56.7°F13.7°C 69% Calm Calm 2.0 mph3.2 kmh 29.60 in1002.4 mb 0.00 in0.0 mm 0.00 in0.0 mm 0.01 in0.3 mm
06:52 PM 67.1°F19.5°C 57.4°F14.1°C 71% Calm Calm 2.0 mph3.2 kmh 29.61 in1002.7 mb 0.00 in0.0 mm 0.00 in0.0 mm 0.01 in0.3 mm
06:57 PM 67.1°F19.5°C 56.7°F13.7°C 69% Calm Calm 2.0 mph3.2 kmh 29.61 in1002.7 mb 0.00 in0.0 mm 0.00 in0.0 mm 0.01 in0.3 mm
07:02 PM 67.1°F19.5°C 56.7°F13.7°C 69% Calm Calm 2.0 mph3.2 kmh 29.60 in1002.4 mb 0.00 in0.0 mm 0.00 in0.0 mm 0.01 in0.3 mm
07:07 PM 67.1°F19.5°C 56.7°F13.7°C 69% Calm Calm -- 29.60 in1002.4 mb 0.00 in0.0 mm 0.00 in0.0 mm 0.01 in0.3 mm
07:12 PM 66.9°F19.4°C 58.3°F14.6°C 74% Calm Calm -- 29.60 in1002.4 mb 0.00 in0.0 mm 0.00 in0.0 mm 0.01 in0.3 mm
07:17 PM 66.7°F19.3°C 58.6°F14.8°C 75% Calm Calm -- 29.60 in1002.4 mb 0.00 in0.0 mm 0.00 in0.0 mm 0.01 in0.3 mm
07:22 PM 66.6°F19.2°C 58.8°F14.9°C 76% Calm Calm -- 29.60 in1002.4 mb 0.00 in0.0 mm 0.00 in0.0 mm 0.01 in0.3 mm
07:27 PM 66.4°F19.1°C 59.0°F15.0°C 77% Calm Calm -- 29.60 in1002.4 mb 0.00 in0.0 mm 0.00 in0.0 mm 0.01 in0.3 mm
07:32 PM 65.8°F18.8°C 58.8°F14.9°C 78% Calm Calm -- 29.60 in1002.4 mb 0.00 in0.0 mm 0.00 in0.0 mm 0.01 in0.3 mm
07:37 PM 65.7°F18.7°C 58.3°F14.6°C 77% Calm Calm -- 29.61 in1002.7 mb 0.00 in0.0 mm 0.00 in0.0 mm 0.01 in0.3 mm
07:42 PM 65.5°F18.6°C 58.8°F14.9°C 79% Calm Calm -- 29.61 in1002.7 mb 0.00 in0.0 mm 0.00 in0.0 mm 0.01 in0.3 mm
07:47 PM 65.3°F18.5°C 58.6°F14.8°C 79% Calm Calm -- 29.61 in1002.7 mb 0.00 in0.0 mm 0.00 in0.0 mm 0.01 in0.3 mm
07:52 PM 64.9°F18.3°C 58.3°F14.6°C 79% Calm Calm -- 29.61 in1002.7 mb 0.00 in0.0 mm 0.00 in0.0 mm 0.01 in0.3 mm
07:57 PM 64.4°F18.0°C 58.1°F14.5°C 80% Calm Calm -- 29.61 in1002.7 mb 0.00 in0.0 mm 0.00 in0.0 mm 0.01 in0.3 mm
08:02 PM 64.0°F17.8°C 58.1°F14.5°C 81% Calm Calm -- 29.61 in1002.7 mb 0.00 in0.0 mm 0.00 in0.0 mm 0.01 in0.3 mm
08:07 PM 63.5°F17.5°C 57.6°F14.2°C 81% Calm Calm -- 29.61 in1002.7 mb 0.00 in0.0 mm 0.00 in0.0 mm 0.01 in0.3 mm
08:12 PM 63.1°F17.3°C 57.2°F14.0°C 81% Calm Calm -- 29.62 in1003.0 mb 0.00 in0.0 mm 0.00 in0.0 mm 0.01 in0.3 mm
08:17 PM 62.6°F17.0°C 57.0°F13.9°C 82% Calm Calm -- 29.62 in1003.0 mb 0.00 in0.0 mm 0.00 in0.0 mm 0.01 in0.3 mm
08:22 PM 62.2°F16.8°C 57.0°F13.9°C 83% Calm Calm -- 29.62 in1003.0 mb 0.00 in0.0 mm 0.00 in0.0 mm 0.01 in0.3 mm
08:27 PM 61.9°F16.6°C 57.0°F13.9°C 84% Calm Calm -- 29.62 in1003.0 mb 0.00 in0.0 mm 0.00 in0.0 mm 0.01 in0.3 mm
08:32 PM 61.3°F16.3°C 56.5°F13.6°C 84% Calm Calm -- 29.62 in1003.0 mb 0.00 in0.0 mm 0.00 in0.0 mm 0.01 in0.3 mm
08:37 PM 61.2°F16.2°C 56.7°F13.7°C 85% Calm Calm -- 29.62 in1003.0 mb 0.00 in0.0 mm 0.00 in0.0 mm 0.01 in0.3 mm
08:42 PM 61.0°F16.1°C 56.8°F13.8°C 86% Calm Calm -- 29.62 in1003.0 mb 0.00 in0.0 mm 0.00 in0.0 mm 0.01 in0.3 mm
08:47 PM 60.6°F15.9°C 56.5°F13.6°C 86% Calm Calm -- 29.62 in1003.0 mb 0.00 in0.0 mm 0.00 in0.0 mm 0.01 in0.3 mm
08:52 PM 60.4°F15.8°C 56.5°F13.6°C 87% Calm Calm -- 29.63 in1003.4 mb 0.00 in0.0 mm 0.00 in0.0 mm 0.01 in0.3 mm
08:57 PM 60.3°F15.7°C 56.1°F13.4°C 86% Calm Calm -- 29.63 in1003.4 mb 0.00 in0.0 mm 0.00 in0.0 mm 0.01 in0.3 mm
09:02 PM 60.1°F15.6°C 56.1°F13.4°C 87% Calm Calm -- 29.63 in1003.4 mb 0.00 in0.0 mm 0.00 in0.0 mm 0.01 in0.3 mm
09:07 PM 59.9°F15.5°C 55.9°F13.3°C 87% Calm Calm -- 29.63 in1003.4 mb 0.00 in0.0 mm 0.00 in0.0 mm 0.01 in0.3 mm
09:12 PM 59.7°F15.4°C 55.8°F13.2°C 87% Calm Calm -- 29.64 in1003.7 mb 0.00 in0.0 mm 0.00 in0.0 mm 0.01 in0.3 mm
09:17 PM 59.5°F15.3°C 55.9°F13.3°C 88% Calm Calm -- 29.64 in1003.7 mb 0.00 in0.0 mm 0.00 in0.0 mm 0.01 in0.3 mm
09:22 PM 59.4°F15.2°C 55.8°F13.2°C 88% Calm Calm -- 29.65 in1004.1 mb 0.00 in0.0 mm 0.00 in0.0 mm 0.01 in0.3 mm
09:27 PM 59.2°F15.1°C 55.6°F13.1°C 88% Calm Calm -- 29.65 in1004.1 mb 0.00 in0.0 mm 0.00 in0.0 mm 0.01 in0.3 mm
09:32 PM 59.2°F15.1°C 55.9°F13.3°C 89% Calm Calm -- 29.65 in1004.1 mb 0.00 in0.0 mm 0.00 in0.0 mm 0.01 in0.3 mm
09:37 PM 59.2°F15.1°C 55.9°F13.3°C 89% Calm Calm -- 29.65 in1004.1 mb 0.00 in0.0 mm 0.00 in0.0 mm 0.01 in0.3 mm
09:42 PM 59.0°F15.0°C 55.8°F13.2°C 89% Calm Calm -- 29.66 in1004.4 mb 0.00 in0.0 mm 0.00 in0.0 mm 0.01 in0.3 mm
09:47 PM 59.0°F15.0°C 55.8°F13.2°C 89% Calm Calm -- 29.66 in1004.4 mb 0.00 in0.0 mm 0.00 in0.0 mm 0.01 in0.3 mm
09:52 PM 59.0°F15.0°C 55.8°F13.2°C 89% Calm Calm -- 29.66 in1004.4 mb 0.00 in0.0 mm 0.00 in0.0 mm 0.01 in0.3 mm
09:57 PM 59.0°F15.0°C 55.8°F13.2°C 89% Calm Calm -- 29.66 in1004.4 mb 0.00 in0.0 mm 0.00 in0.0 mm 0.01 in0.3 mm
10:02 PM 59.0°F15.0°C 55.8°F13.2°C 89% Calm Calm -- 29.67 in1004.7 mb 0.00 in0.0 mm 0.00 in0.0 mm 0.01 in0.3 mm
10:07 PM 59.4°F15.2°C 56.5°F13.6°C 90% Calm Calm -- 29.66 in1004.4 mb 0.00 in0.0 mm 0.00 in0.0 mm 0.01 in0.3 mm
10:12 PM 59.5°F15.3°C 56.7°F13.7°C 90% Calm Calm -- 29.67 in1004.7 mb 0.00 in0.0 mm 0.00 in0.0 mm 0.01 in0.3 mm
10:17 PM 59.7°F15.4°C 57.0°F13.9°C 91% Calm Calm 4.0 mph6.4 kmh 29.67 in1004.7 mb 0.00 in0.0 mm 0.00 in0.0 mm 0.01 in0.3 mm
10:22 PM 60.3°F15.7°C 57.6°F14.2°C 91% 0.9 mph S1.4 kmh S 2.9 mph4.7 kmh 29.67 in1004.7 mb 0.00 in0.0 mm 0.00 in0.0 mm 0.01 in0.3 mm
10:27 PM 60.6°F15.9°C 57.9°F14.4°C 91% 0.9 mph S1.4 kmh S 2.0 mph3.2 kmh 29.67 in1004.7 mb 0.00 in0.0 mm 0.00 in0.0 mm 0.01 in0.3 mm
10:32 PM 61.0°F16.1°C 58.6°F14.8°C 92% Calm Calm 2.0 mph3.2 kmh 29.67 in1004.7 mb 0.02 in0.5 mm 0.24 in6.1 mm 0.02 in0.5 mm
10:37 PM 61.2°F16.2°C 58.8°F14.9°C 92% Calm Calm 0.9 mph1.4 kmh 29.67 in1004.7 mb 0.03 in0.8 mm 0.12 in3.0 mm 0.05 in1.3 mm
10:42 PM 61.2°F16.2°C 58.8°F14.9°C 92% Calm Calm 3.0 mph4.8 kmh 29.67 in1004.7 mb 0.06 in1.5 mm 0.36 in9.1 mm 0.07 in1.8 mm
10:47 PM 61.2°F16.2°C 58.8°F14.9°C 92% Calm Calm 2.9 mph4.7 kmh 29.67 in1004.7 mb 0.08 in2.0 mm 0.24 in6.1 mm 0.09 in2.3 mm
10:52 PM 61.0°F16.1°C 59.0°F15.0°C 93% Calm Calm -- 29.67 in1004.7 mb 0.10 in2.5 mm 0.24 in6.1 mm 0.11 in2.8 mm
10:57 PM 60.8°F16.0°C 58.5°F14.7°C 92% Calm Calm 2.0 mph3.2 kmh 29.67 in1004.7 mb 0.11 in2.8 mm 0.12 in3.0 mm 0.12 in3.0 mm
11:02 PM 60.6°F15.9°C 58.6°F14.8°C 93% Calm Calm 2.0 mph3.2 kmh 29.67 in1004.7 mb 0.11 in2.8 mm 0.00 in0.0 mm 0.12 in3.0 mm
11:07 PM 60.6°F15.9°C 58.6°F14.8°C 93% Calm Calm 2.0 mph3.2 kmh 29.67 in1004.7 mb 0.12 in3.0 mm 0.12 in3.0 mm 0.01 in0.3 mm
11:12 PM 60.4°F15.8°C 58.5°F14.7°C 93% Calm Calm -- 29.67 in1004.7 mb 0.12 in3.0 mm 0.00 in0.0 mm 0.01 in0.3 mm
11:17 PM 60.4°F15.8°C 58.5°F14.7°C 93% Calm Calm -- 29.67 in1004.7 mb 0.13 in3.3 mm 0.12 in3.0 mm 0.02 in0.5 mm
11:22 PM 60.3°F15.7°C 58.3°F14.6°C 93% Calm Calm 1.0 mph1.6 kmh 29.67 in1004.7 mb 0.13 in3.3 mm 0.00 in0.0 mm 0.02 in0.5 mm
11:27 PM 60.1°F15.6°C 58.1°F14.5°C 93% Calm Calm -- 29.67 in1004.7 mb 0.13 in3.3 mm 0.00 in0.0 mm 0.02 in0.5 mm
11:32 PM 59.9°F15.5°C 57.9°F14.4°C 93% Calm Calm -- 29.66 in1004.4 mb 0.12 in3.0 mm 0.00 in0.0 mm 0.02 in0.5 mm
11:37 PM 59.7°F15.4°C 57.7°F14.3°C 93% Calm Calm -- 29.66 in1004.4 mb 0.10 in2.5 mm 0.00 in0.0 mm 0.02 in0.5 mm
11:47 PM 59.4°F15.2°C 57.6°F14.2°C 94% Calm Calm -- 29.66 in1004.4 mb 0.06 in1.5 mm 0.00 in0.0 mm 0.02 in0.5 mm
11:52 PM 59.2°F15.1°C 57.4°F14.1°C 94% Calm Calm -- 29.66 in1004.4 mb 0.03 in0.8 mm 0.00 in0.0 mm 0.02 in0.5 mm
11:57 PM 58.8°F14.9°C 57.0°F13.9°C 94% Calm Calm -- 29.66 in1004.4 mb 0.02 in0.5 mm 0.00 in0.0 mm 0.02 in0.5 mm